sensor_id;sensor_type;location;lat;lon;timestamp;temperature;humidity
10233;DHT22;5161;48.174;11.756;2023-03-31T00:01:26;11.40;80.60
10233;DHT22;5161;48.174;11.756;2023-03-31T00:03:52;11.30;80.50
10233;DHT22;5161;48.174;11.756;2023-03-31T00:06:27;11.30;80.40
10233;DHT22;5161;48.174;11.756;2023-03-31T00:08:52;11.30;80.50
10233;DHT22;5161;48.174;11.756;2023-03-31T00:11:19;11.20;80.40
10233;DHT22;5161;48.174;11.756;2023-03-31T00:13:46;11.20;80.30
10233;DHT22;5161;48.174;11.756;2023-03-31T00:16:11;11.30;80.30
10233;DHT22;5161;48.174;11.756;2023-03-31T00:18:37;11.30;80.50
10233;DHT22;5161;48.174;11.756;2023-03-31T00:21:10;11.30;80.50
10233;DHT22;5161;48.174;11.756;2023-03-31T00:23:39;11.30;80.50
10233;DHT22;5161;48.174;11.756;2023-03-31T00:26:05;11.30;80.20
10233;DHT22;5161;48.174;11.756;2023-03-31T00:28:32;11.30;80.10
10233;DHT22;5161;48.174;11.756;2023-03-31T00:31:02;11.30;80.20
10233;DHT22;5161;48.174;11.756;2023-03-31T00:33:28;11.30;80.20
10233;DHT22;5161;48.174;11.756;2023-03-31T00:35:54;11.30;79.90
10233;DHT22;5161;48.174;11.756;2023-03-31T00:38:20;11.30;79.90
10233;DHT22;5161;48.174;11.756;2023-03-31T00:40:46;11.30;79.80
10233;DHT22;5161;48.174;11.756;2023-03-31T00:43:31;11.30;79.90
10233;DHT22;5161;48.174;11.756;2023-03-31T00:46:22;11.20;80.30
10233;DHT22;5161;48.174;11.756;2023-03-31T00:48:54;11.30;80.70
10233;DHT22;5161;48.174;11.756;2023-03-31T00:51:25;11.30;80.20
10233;DHT22;5161;48.174;11.756;2023-03-31T00:54:00;11.30;80.00
10233;DHT22;5161;48.174;11.756;2023-03-31T00:56:32;11.30;80.10
10233;DHT22;5161;48.174;11.756;2023-03-31T00:59:01;11.30;80.00
10233;DHT22;5161;48.174;11.756;2023-03-31T01:01:28;11.30;80.00
10233;DHT22;5161;48.174;11.756;2023-03-31T01:03:55;11.30;79.70
10233;DHT22;5161;48.174;11.756;2023-03-31T01:06:22;11.30;79.70
10233;DHT22;5161;48.174;11.756;2023-03-31T01:08:49;11.30;79.60
10233;DHT22;5161;48.174;11.756;2023-03-31T01:11:19;11.30;79.50
10233;DHT22;5161;48.174;11.756;2023-03-31T01:13:47;11.30;79.70
10233;DHT22;5161;48.174;11.756;2023-03-31T01:16:16;11.30;79.20
10233;DHT22;5161;48.174;11.756;2023-03-31T01:18:42;11.30;79.20
10233;DHT22;5161;48.174;11.756;2023-03-31T01:21:32;11.30;79.30
10233;DHT22;5161;48.174;11.756;2023-03-31T01:24:29;11.30;78.60
10233;DHT22;5161;48.174;11.756;2023-03-31T01:27:42;11.30;80.20
10233;DHT22;5161;48.174;11.756;2023-03-31T01:33:52;11.30;78.70
10233;DHT22;5161;48.174;11.756;2023-03-31T01:39:47;11.20;78.40
10233;DHT22;5161;48.174;11.756;2023-03-31T01:42:34;11.30;79.50
10233;DHT22;5161;48.174;11.756;2023-03-31T01:45:36;11.30;78.60
10233;DHT22;5161;48.174;11.756;2023-03-31T01:48:11;11.30;78.50
10233;DHT22;5161;48.174;11.756;2023-03-31T01:50:50;11.30;78.50
10233;DHT22;5161;48.174;11.756;2023-03-31T01:53:31;11.30;78.90
10233;DHT22;5161;48.174;11.756;2023-03-31T01:56:12;11.30;78.10
10233;DHT22;5161;48.174;11.756;2023-03-31T01:58:57;11.30;78.30
10233;DHT22;5161;48.174;11.756;2023-03-31T02:01:33;11.30;78.50
10233;DHT22;5161;48.174;11.756;2023-03-31T02:04:19;11.30;78.80
10233;DHT22;5161;48.174;11.756;2023-03-31T02:06:50;11.30;78.10
10233;DHT22;5161;48.174;11.756;2023-03-31T02:09:34;11.30;78.50
10233;DHT22;5161;48.174;11.756;2023-03-31T02:12:03;11.40;78.10
10233;DHT22;5161;48.174;11.756;2023-03-31T02:14:31;11.30;78.10
10233;DHT22;5161;48.174;11.756;2023-03-31T02:16:58;11.30;78.20
10233;DHT22;5161;48.174;11.756;2023-03-31T02:19:31;11.30;78.20
10233;DHT22;5161;48.174;11.756;2023-03-31T02:21:58;11.30;78.30
10233;DHT22;5161;48.174;11.756;2023-03-31T02:24:27;11.30;78.30
10233;DHT22;5161;48.174;11.756;2023-03-31T02:29:35;11.30;78.00
10233;DHT22;5161;48.174;11.756;2023-03-31T02:32:20;11.40;77.70
10233;DHT22;5161;48.174;11.756;2023-03-31T02:34:47;11.40;77.80
10233;DHT22;5161;48.174;11.756;2023-03-31T02:37:12;11.40;77.60
10233;DHT22;5161;48.174;11.756;2023-03-31T02:39:40;11.40;77.80
10233;DHT22;5161;48.174;11.756;2023-03-31T02:42:08;11.40;77.60
10233;DHT22;5161;48.174;11.756;2023-03-31T02:44:35;11.40;77.70
10233;DHT22;5161;48.174;11.756;2023-03-31T02:47:02;11.40;77.70
10233;DHT22;5161;48.174;11.756;2023-03-31T02:49:28;11.40;77.70
10233;DHT22;5161;48.174;11.756;2023-03-31T03:03:40;11.30;77.70
10233;DHT22;5161;48.174;11.756;2023-03-31T03:17:40;10.90;78.10
10233;DHT22;5161;48.174;11.756;2023-03-31T03:20:07;10.90;78.20
10233;DHT22;5161;48.174;11.756;2023-03-31T03:22:35;11.00;79.60
10233;DHT22;5161;48.174;11.756;2023-03-31T03:25:02;11.00;79.90
10233;DHT22;5161;48.174;11.756;2023-03-31T03:27:28;11.00;79.60
10233;DHT22;5161;48.174;11.756;2023-03-31T03:29:53;11.10;79.70
10233;DHT22;5161;48.174;11.756;2023-03-31T03:32:19;11.10;79.60
10233;DHT22;5161;48.174;11.756;2023-03-31T03:34:44;11.20;79.60
10233;DHT22;5161;48.174;11.756;2023-03-31T03:37:10;11.30;79.50
10233;DHT22;5161;48.174;11.756;2023-03-31T03:39:36;11.20;79.40
10233;DHT22;5161;48.174;11.756;2023-03-31T03:42:02;11.30;79.60
10233;DHT22;5161;48.174;11.756;2023-03-31T03:44:27;11.30;80.00
10233;DHT22;5161;48.174;11.756;2023-03-31T03:46:53;11.30;80.00
10233;DHT22;5161;48.174;11.756;2023-03-31T03:49:19;11.30;80.00
10233;DHT22;5161;48.174;11.756;2023-03-31T03:51:45;11.30;80.30
10233;DHT22;5161;48.174;11.756;2023-03-31T03:54:11;11.30;81.00
10233;DHT22;5161;48.174;11.756;2023-03-31T03:56:37;11.20;81.30
10233;DHT22;5161;48.174;11.756;2023-03-31T03:59:02;11.20;81.30
10233;DHT22;5161;48.174;11.756;2023-03-31T04:01:28;11.20;81.60
10233;DHT22;5161;48.174;11.756;2023-03-31T04:03:54;11.10;82.00
10233;DHT22;5161;48.174;11.756;2023-03-31T04:06:19;11.10;82.40
10233;DHT22;5161;48.174;11.756;2023-03-31T04:08:45;11.10;82.20
10233;DHT22;5161;48.174;11.756;2023-03-31T04:11:16;11.10;82.40
10233;DHT22;5161;48.174;11.756;2023-03-31T04:13:43;11.10;81.90
10233;DHT22;5161;48.174;11.756;2023-03-31T04:16:10;11.10;82.60
10233;DHT22;5161;48.174;11.756;2023-03-31T04:18:36;11.10;82.70
10233;DHT22;5161;48.174;11.756;2023-03-31T04:21:13;11.00;82.30
10233;DHT22;5161;48.174;11.756;2023-03-31T04:24:02;11.00;81.90
10233;DHT22;5161;48.174;11.756;2023-03-31T04:26:33;10.90;81.90
10233;DHT22;5161;48.174;11.756;2023-03-31T04:29:12;11.00;82.50
10233;DHT22;5161;48.174;11.756;2023-03-31T04:31:39;11.00;82.70
10233;DHT22;5161;48.174;11.756;2023-03-31T04:34:10;11.00;83.20
10233;DHT22;5161;48.174;11.756;2023-03-31T04:36:42;11.00;83.00
10233;DHT22;5161;48.174;11.756;2023-03-31T04:39:15;11.10;83.40
10233;DHT22;5161;48.174;11.756;2023-03-31T04:41:41;11.00;83.50
10233;DHT22;5161;48.174;11.756;2023-03-31T04:44:06;11.00;83.60
10233;DHT22;5161;48.174;11.756;2023-03-31T04:46:33;11.00;83.50
10233;DHT22;5161;48.174;11.756;2023-03-31T04:48:59;11.00;83.40
10233;DHT22;5161;48.174;11.756;2023-03-31T04:51:26;11.00;83.70
10233;DHT22;5161;48.174;11.756;2023-03-31T04:53:52;11.00;83.80
10233;DHT22;5161;48.174;11.756;2023-03-31T04:56:17;11.00;84.10
10233;DHT22;5161;48.174;11.756;2023-03-31T04:58:43;11.10;84.40
10233;DHT22;5161;48.174;11.756;2023-03-31T05:01:09;11.00;84.30
10233;DHT22;5161;48.174;11.756;2023-03-31T05:03:38;11.00;84.30
10233;DHT22;5161;48.174;11.756;2023-03-31T05:06:04;11.00;84.30
10233;DHT22;5161;48.174;11.756;2023-03-31T05:08:30;11.10;84.50
10233;DHT22;5161;48.174;11.756;2023-03-31T05:10:56;11.10;84.60
10233;DHT22;5161;48.174;11.756;2023-03-31T05:13:22;11.10;84.50
10233;DHT22;5161;48.174;11.756;2023-03-31T05:15:47;11.10;84.50
10233;DHT22;5161;48.174;11.756;2023-03-31T05:18:15;11.00;84.30
10233;DHT22;5161;48.174;11.756;2023-03-31T05:20:41;11.00;84.40
10233;DHT22;5161;48.174;11.756;2023-03-31T05:23:06;11.00;84.40
10233;DHT22;5161;48.174;11.756;2023-03-31T05:25:32;11.00;84.80
10233;DHT22;5161;48.174;11.756;2023-03-31T05:27:59;11.00;85.00
10233;DHT22;5161;48.174;11.756;2023-03-31T05:30:25;11.00;84.80
10233;DHT22;5161;48.174;11.756;2023-03-31T05:32:51;10.90;85.20
10233;DHT22;5161;48.174;11.756;2023-03-31T05:35:18;11.00;86.20
10233;DHT22;5161;48.174;11.756;2023-03-31T05:37:43;11.00;86.30
10233;DHT22;5161;48.174;11.756;2023-03-31T05:40:09;11.00;86.30
10233;DHT22;5161;48.174;11.756;2023-03-31T05:42:36;11.00;86.00
10233;DHT22;5161;48.174;11.756;2023-03-31T05:45:03;11.00;86.00
10233;DHT22;5161;48.174;11.756;2023-03-31T05:47:28;10.90;86.00
10233;DHT22;5161;48.174;11.756;2023-03-31T05:49:54;10.90;86.10
10233;DHT22;5161;48.174;11.756;2023-03-31T05:52:20;10.90;86.00
10233;DHT22;5161;48.174;11.756;2023-03-31T05:54:46;10.90;86.20
10233;DHT22;5161;48.174;11.756;2023-03-31T05:57:12;10.80;86.00
10233;DHT22;5161;48.174;11.756;2023-03-31T05:59:37;10.90;86.40
10233;DHT22;5161;48.174;11.756;2023-03-31T06:02:14;10.80;86.60
10233;DHT22;5161;48.174;11.756;2023-03-31T06:04:40;10.90;87.50
10233;DHT22;5161;48.174;11.756;2023-03-31T06:07:06;10.80;86.90
10233;DHT22;5161;48.174;11.756;2023-03-31T06:09:32;10.90;87.20
10233;DHT22;5161;48.174;11.756;2023-03-31T06:11:58;10.80;87.20
10233;DHT22;5161;48.174;11.756;2023-03-31T06:14:24;10.90;87.80
10233;DHT22;5161;48.174;11.756;2023-03-31T06:16:49;10.80;87.80
10233;DHT22;5161;48.174;11.756;2023-03-31T06:19:15;10.90;88.10
10233;DHT22;5161;48.174;11.756;2023-03-31T06:21:41;10.90;88.40
10233;DHT22;5161;48.174;11.756;2023-03-31T06:24:08;11.00;88.60
10233;DHT22;5161;48.174;11.756;2023-03-31T06:26:34;11.00;88.70
10233;DHT22;5161;48.174;11.756;2023-03-31T06:29:00;11.10;88.80
10233;DHT22;5161;48.174;11.756;2023-03-31T06:31:25;11.10;88.80
10233;DHT22;5161;48.174;11.756;2023-03-31T06:33:51;11.10;89.00
10233;DHT22;5161;48.174;11.756;2023-03-31T06:36:19;11.10;89.00
10233;DHT22;5161;48.174;11.756;2023-03-31T06:38:46;11.10;89.50
10233;DHT22;5161;48.174;11.756;2023-03-31T06:41:13;11.10;89.90
10233;DHT22;5161;48.174;11.756;2023-03-31T06:43:39;11.00;89.70
10233;DHT22;5161;48.174;11.756;2023-03-31T06:46:05;10.90;89.30
10233;DHT22;5161;48.174;11.756;2023-03-31T06:48:32;11.00;89.80
10233;DHT22;5161;48.174;11.756;2023-03-31T06:51:02;11.00;90.20
10233;DHT22;5161;48.174;11.756;2023-03-31T06:53:29;11.00;90.00
10233;DHT22;5161;48.174;11.756;2023-03-31T06:55:54;11.10;90.60
10233;DHT22;5161;48.174;11.756;2023-03-31T06:58:20;11.10;90.20
10233;DHT22;5161;48.174;11.756;2023-03-31T07:00:47;11.20;90.30
10233;DHT22;5161;48.174;11.756;2023-03-31T07:03:13;11.20;90.20
10233;DHT22;5161;48.174;11.756;2023-03-31T07:05:39;11.10;90.30
10233;DHT22;5161;48.174;11.756;2023-03-31T07:08:05;11.10;90.20
10233;DHT22;5161;48.174;11.756;2023-03-31T07:10:31;11.20;90.60
10233;DHT22;5161;48.174;11.756;2023-03-31T07:12:57;11.20;90.40
10233;DHT22;5161;48.174;11.756;2023-03-31T07:15:24;11.30;90.40
10233;DHT22;5161;48.174;11.756;2023-03-31T07:17:50;11.20;90.30
10233;DHT22;5161;48.174;11.756;2023-03-31T07:20:19;11.30;90.20
10233;DHT22;5161;48.174;11.756;2023-03-31T07:22:47;11.20;90.30
10233;DHT22;5161;48.174;11.756;2023-03-31T07:25:14;11.30;90.10
10233;DHT22;5161;48.174;11.756;2023-03-31T07:27:40;11.10;90.10
10233;DHT22;5161;48.174;11.756;2023-03-31T07:30:08;11.10;90.20
10233;DHT22;5161;48.174;11.756;2023-03-31T07:32:34;11.10;90.50
10233;DHT22;5161;48.174;11.756;2023-03-31T07:35:05;11.10;90.40
10233;DHT22;5161;48.174;11.756;2023-03-31T07:37:35;11.10;90.30
10233;DHT22;5161;48.174;11.756;2023-03-31T07:40:01;11.00;90.30
10233;DHT22;5161;48.174;11.756;2023-03-31T07:42:27;11.10;90.60
10233;DHT22;5161;48.174;11.756;2023-03-31T07:44:53;11.10;90.40
10233;DHT22;5161;48.174;11.756;2023-03-31T07:47:18;11.20;90.40
10233;DHT22;5161;48.174;11.756;2023-03-31T07:49:44;11.20;90.40
10233;DHT22;5161;48.174;11.756;2023-03-31T07:52:10;11.20;90.50
10233;DHT22;5161;48.174;11.756;2023-03-31T07:54:35;11.10;90.20
10233;DHT22;5161;48.174;11.756;2023-03-31T07:57:01;11.10;90.40
10233;DHT22;5161;48.174;11.756;2023-03-31T07:59:28;11.20;90.60
10233;DHT22;5161;48.174;11.756;2023-03-31T08:01:54;11.20;90.60
10233;DHT22;5161;48.174;11.756;2023-03-31T08:04:20;11.20;90.60
10233;DHT22;5161;48.174;11.756;2023-03-31T08:06:45;11.20;90.70
10233;DHT22;5161;48.174;11.756;2023-03-31T08:09:11;11.20;90.80
10233;DHT22;5161;48.174;11.756;2023-03-31T08:11:37;11.20;90.90
10233;DHT22;5161;48.174;11.756;2023-03-31T08:14:02;11.30;91.00
10233;DHT22;5161;48.174;11.756;2023-03-31T08:16:28;11.40;91.20
10233;DHT22;5161;48.174;11.756;2023-03-31T08:18:54;11.40;91.20
10233;DHT22;5161;48.174;11.756;2023-03-31T08:21:19;11.50;91.20
10233;DHT22;5161;48.174;11.756;2023-03-31T08:23:45;11.50;91.30
10233;DHT22;5161;48.174;11.756;2023-03-31T08:26:15;11.60;91.50
10233;DHT22;5161;48.174;11.756;2023-03-31T08:28:46;11.60;91.50
10233;DHT22;5161;48.174;11.756;2023-03-31T08:31:13;11.50;91.40
10233;DHT22;5161;48.174;11.756;2023-03-31T08:33:40;11.50;91.20
10233;DHT22;5161;48.174;11.756;2023-03-31T08:36:07;11.60;91.50
10233;DHT22;5161;48.174;11.756;2023-03-31T08:38:35;11.50;91.40
10233;DHT22;5161;48.174;11.756;2023-03-31T08:41:03;11.50;91.60
10233;DHT22;5161;48.174;11.756;2023-03-31T08:43:33;11.50;91.50
10233;DHT22;5161;48.174;11.756;2023-03-31T08:46:02;11.50;91.70
10233;DHT22;5161;48.174;11.756;2023-03-31T08:48:35;11.50;91.70
10233;DHT22;5161;48.174;11.756;2023-03-31T08:51:11;11.50;91.80
10233;DHT22;5161;48.174;11.756;2023-03-31T08:53:44;11.50;91.60
10233;DHT22;5161;48.174;11.756;2023-03-31T08:56:16;11.30;91.50
10233;DHT22;5161;48.174;11.756;2023-03-31T08:58:45;11.30;91.70
10233;DHT22;5161;48.174;11.756;2023-03-31T09:04:20;11.20;91.60
10233;DHT22;5161;48.174;11.756;2023-03-31T09:09:50;11.10;89.00
10233;DHT22;5161;48.174;11.756;2023-03-31T09:12:28;11.30;89.50
10233;DHT22;5161;48.174;11.756;2023-03-31T09:15:00;11.30;88.70
10233;DHT22;5161;48.174;11.756;2023-03-31T09:17:29;11.40;88.70
10233;DHT22;5161;48.174;11.756;2023-03-31T09:20:04;11.40;88.10
10233;DHT22;5161;48.174;11.756;2023-03-31T09:22:42;11.50;89.00
10233;DHT22;5161;48.174;11.756;2023-03-31T09:27:39;11.50;88.10
10233;DHT22;5161;48.174;11.756;2023-03-31T09:32:39;11.70;88.10
10233;DHT22;5161;48.174;11.756;2023-03-31T09:35:24;11.80;88.00
10233;DHT22;5161;48.174;11.756;2023-03-31T09:37:51;11.90;87.20
10233;DHT22;5161;48.174;11.756;2023-03-31T09:40:22;11.90;87.20
10233;DHT22;5161;48.174;11.756;2023-03-31T09:42:55;12.00;88.50
10233;DHT22;5161;48.174;11.756;2023-03-31T09:45:22;12.10;88.50
10233;DHT22;5161;48.174;11.756;2023-03-31T09:47:53;12.20;88.70
10233;DHT22;5161;48.174;11.756;2023-03-31T09:50:20;12.20;88.70
10233;DHT22;5161;48.174;11.756;2023-03-31T09:52:52;12.30;88.40
10233;DHT22;5161;48.174;11.756;2023-03-31T09:55:24;12.40;87.60
10233;DHT22;5161;48.174;11.756;2023-03-31T09:57:51;12.40;88.20
10233;DHT22;5161;48.174;11.756;2023-03-31T10:00:19;12.50;88.70
10233;DHT22;5161;48.174;11.756;2023-03-31T10:02:54;12.50;87.60
10233;DHT22;5161;48.174;11.756;2023-03-31T10:05:38;12.60;88.40
10233;DHT22;5161;48.174;11.756;2023-03-31T10:08:21;12.60;87.60
10233;DHT22;5161;48.174;11.756;2023-03-31T10:13:28;12.70;88.00
10233;DHT22;5161;48.174;11.756;2023-03-31T10:16:04;12.70;87.50
10233;DHT22;5161;48.174;11.756;2023-03-31T10:18:38;12.70;87.80
10233;DHT22;5161;48.174;11.756;2023-03-31T10:21:06;12.60;86.70
10233;DHT22;5161;48.174;11.756;2023-03-31T10:23:34;12.60;86.10
10233;DHT22;5161;48.174;11.756;2023-03-31T10:26:00;12.60;86.60
10233;DHT22;5161;48.174;11.756;2023-03-31T10:28:31;12.70;87.50
10233;DHT22;5161;48.174;11.756;2023-03-31T10:30:58;12.80;87.60
10233;DHT22;5161;48.174;11.756;2023-03-31T10:33:30;12.90;88.30
10233;DHT22;5161;48.174;11.756;2023-03-31T10:36:14;12.90;88.00
10233;DHT22;5161;48.174;11.756;2023-03-31T10:38:43;12.90;88.30
10233;DHT22;5161;48.174;11.756;2023-03-31T10:41:10;13.00;88.50
10233;DHT22;5161;48.174;11.756;2023-03-31T10:46:03;13.00;88.60
10233;DHT22;5161;48.174;11.756;2023-03-31T10:48:32;13.00;87.30
10233;DHT22;5161;48.174;11.756;2023-03-31T10:51:16;13.00;87.00
10233;DHT22;5161;48.174;11.756;2023-03-31T10:53:44;13.10;87.40
10233;DHT22;5161;48.174;11.756;2023-03-31T11:09:39;13.70;86.30
10233;DHT22;5161;48.174;11.756;2023-03-31T11:12:33;13.80;85.90
10233;DHT22;5161;48.174;11.756;2023-03-31T11:21:03;13.50;84.50
10233;DHT22;5161;48.174;11.756;2023-03-31T11:23:43;13.50;84.70
10233;DHT22;5161;48.174;11.756;2023-03-31T11:37:49;13.30;86.20
10233;DHT22;5161;48.174;11.756;2023-03-31T11:42:58;12.90;82.50
10233;DHT22;5161;48.174;11.756;2023-03-31T11:45:31;12.40;80.30
10233;DHT22;5161;48.174;11.756;2023-03-31T11:48:02;12.20;81.20
10233;DHT22;5161;48.174;11.756;2023-03-31T11:50:35;12.10;81.30
10233;DHT22;5161;48.174;11.756;2023-03-31T11:53:18;12.00;80.60
10233;DHT22;5161;48.174;11.756;2023-03-31T11:55:47;12.00;81.60
10233;DHT22;5161;48.174;11.756;2023-03-31T11:58:23;12.00;81.90
10233;DHT22;5161;48.174;11.756;2023-03-31T12:01:08;12.00;81.20
10233;DHT22;5161;48.174;11.756;2023-03-31T12:03:54;11.90;81.30
10233;DHT22;5161;48.174;11.756;2023-03-31T12:06:24;11.90;80.90
10233;DHT22;5161;48.174;11.756;2023-03-31T12:17:22;12.10;80.30
10233;DHT22;5161;48.174;11.756;2023-03-31T12:19:56;12.10;80.40
10233;DHT22;5161;48.174;11.756;2023-03-31T12:22:38;12.20;80.70
10233;DHT22;5161;48.174;11.756;2023-03-31T12:25:11;12.40;81.60
10233;DHT22;5161;48.174;11.756;2023-03-31T12:27:41;12.30;81.60
10233;DHT22;5161;48.174;11.756;2023-03-31T12:30:13;12.50;81.10
10233;DHT22;5161;48.174;11.756;2023-03-31T12:32:47;12.60;82.50
10233;DHT22;5161;48.174;11.756;2023-03-31T12:35:30;12.50;82.00
10233;DHT22;5161;48.174;11.756;2023-03-31T12:41:09;12.40;81.50
10233;DHT22;5161;48.174;11.756;2023-03-31T12:52:10;12.70;81.20
10233;DHT22;5161;48.174;11.756;2023-03-31T12:57:41;12.60;80.80
10233;DHT22;5161;48.174;11.756;2023-03-31T13:02:40;12.60;83.20
10233;DHT22;5161;48.174;11.756;2023-03-31T13:11:12;12.90;80.50
10233;DHT22;5161;48.174;11.756;2023-03-31T13:14:01;13.50;80.70
10233;DHT22;5161;48.174;11.756;2023-03-31T13:16:29;13.60;78.80
10233;DHT22;5161;48.174;11.756;2023-03-31T13:19:03;13.40;76.10
10233;DHT22;5161;48.174;11.756;2023-03-31T13:21:57;13.20;75.30
10233;DHT22;5161;48.174;11.756;2023-03-31T13:24:24;13.10;72.70
10233;DHT22;5161;48.174;11.756;2023-03-31T13:26:55;13.00;69.40
10233;DHT22;5161;48.174;11.756;2023-03-31T13:29:38;12.80;69.10
10233;DHT22;5161;48.174;11.756;2023-03-31T13:32:19;12.80;66.90
10233;DHT22;5161;48.174;11.756;2023-03-31T13:35:13;12.80;67.30
10233;DHT22;5161;48.174;11.756;2023-03-31T13:38:08;12.70;67.10
10233;DHT22;5161;48.174;11.756;2023-03-31T13:43:37;12.70;67.50
10233;DHT22;5161;48.174;11.756;2023-03-31T13:46:40;12.70;66.20
10233;DHT22;5161;48.174;11.756;2023-03-31T13:49:12;12.70;67.40
10233;DHT22;5161;48.174;11.756;2023-03-31T13:52:00;13.00;67.70
10233;DHT22;5161;48.174;11.756;2023-03-31T13:55:00;13.20;68.10
10233;DHT22;5161;48.174;11.756;2023-03-31T14:08:57;14.80;66.50
10233;DHT22;5161;48.174;11.756;2023-03-31T14:11:27;14.50;66.80
10233;DHT22;5161;48.174;11.756;2023-03-31T14:14:03;14.30;67.00
10233;DHT22;5161;48.174;11.756;2023-03-31T14:16:36;14.20;66.40
10233;DHT22;5161;48.174;11.756;2023-03-31T14:25:08;13.70;66.30
10233;DHT22;5161;48.174;11.756;2023-03-31T14:31:22;13.50;66.30
10233;DHT22;5161;48.174;11.756;2023-03-31T14:37:20;13.40;65.90
10233;DHT22;5161;48.174;11.756;2023-03-31T14:39:25;13.40;67.00
10233;DHT22;5161;48.174;11.756;2023-03-31T14:41:53;13.40;67.50
10233;DHT22;5161;48.174;11.756;2023-03-31T14:44:20;13.30;67.50
10233;DHT22;5161;48.174;11.756;2023-03-31T14:46:46;13.30;68.20
10233;DHT22;5161;48.174;11.756;2023-03-31T14:49:24;13.30;68.40
10233;DHT22;5161;48.174;11.756;2023-03-31T14:51:52;13.30;68.50
10233;DHT22;5161;48.174;11.756;2023-03-31T14:54:20;13.10;71.90
10233;DHT22;5161;48.174;11.756;2023-03-31T14:56:57;12.40;74.10
10233;DHT22;5161;48.174;11.756;2023-03-31T14:59:29;12.00;74.30
10233;DHT22;5161;48.174;11.756;2023-03-31T15:01:58;11.70;75.30
10233;DHT22;5161;48.174;11.756;2023-03-31T15:04:27;11.60;74.70
10233;DHT22;5161;48.174;11.756;2023-03-31T15:06:53;11.60;76.20
10233;DHT22;5161;48.174;11.756;2023-03-31T15:09:27;11.60;76.00
10233;DHT22;5161;48.174;11.756;2023-03-31T15:12:09;11.50;75.60
10233;DHT22;5161;48.174;11.756;2023-03-31T15:14:41;11.50;76.20
10233;DHT22;5161;48.174;11.756;2023-03-31T15:17:29;11.50;76.80
10233;DHT22;5161;48.174;11.756;2023-03-31T15:19:59;11.70;74.80
10233;DHT22;5161;48.174;11.756;2023-03-31T15:22:27;12.00;75.00
10233;DHT22;5161;48.174;11.756;2023-03-31T15:24:53;12.20;74.80
10233;DHT22;5161;48.174;11.756;2023-03-31T15:27:35;12.30;74.30
10233;DHT22;5161;48.174;11.756;2023-03-31T15:30:05;12.50;73.90
10233;DHT22;5161;48.174;11.756;2023-03-31T15:32:37;12.70;74.00
10233;DHT22;5161;48.174;11.756;2023-03-31T15:35:05;13.00;74.10
10233;DHT22;5161;48.174;11.756;2023-03-31T15:37:40;13.10;74.20
10233;DHT22;5161;48.174;11.756;2023-03-31T15:40:18;13.20;74.20
10233;DHT22;5161;48.174;11.756;2023-03-31T15:42:45;13.30;73.00
10233;DHT22;5161;48.174;11.756;2023-03-31T15:45:47;13.20;71.30
10233;DHT22;5161;48.174;11.756;2023-03-31T15:48:32;13.30;72.40
10233;DHT22;5161;48.174;11.756;2023-03-31T15:51:05;13.20;71.80
10233;DHT22;5161;48.174;11.756;2023-03-31T15:55:58;13.10;71.20
10233;DHT22;5161;48.174;11.756;2023-03-31T15:58:56;13.10;70.60
10233;DHT22;5161;48.174;11.756;2023-03-31T16:01:26;13.00;70.00
10233;DHT22;5161;48.174;11.756;2023-03-31T16:03:55;12.90;69.60
10233;DHT22;5161;48.174;11.756;2023-03-31T16:06:37;12.70;70.20
10233;DHT22;5161;48.174;11.756;2023-03-31T16:09:16;12.70;70.20
10233;DHT22;5161;48.174;11.756;2023-03-31T16:11:51;12.70;69.60
10233;DHT22;5161;48.174;11.756;2023-03-31T16:14:23;12.70;69.70
10233;DHT22;5161;48.174;11.756;2023-03-31T16:17:00;12.70;69.70
10233;DHT22;5161;48.174;11.756;2023-03-31T16:19:31;12.70;69.90
10233;DHT22;5161;48.174;11.756;2023-03-31T16:22:03;12.80;69.70
10233;DHT22;5161;48.174;11.756;2023-03-31T16:24:34;13.00;70.20
10233;DHT22;5161;48.174;11.756;2023-03-31T16:27:05;13.20;69.10
10233;DHT22;5161;48.174;11.756;2023-03-31T16:29:36;13.30;69.30
10233;DHT22;5161;48.174;11.756;2023-03-31T16:32:16;13.40;68.60
10233;DHT22;5161;48.174;11.756;2023-03-31T16:35:02;13.40;69.00
10233;DHT22;5161;48.174;11.756;2023-03-31T16:37:29;13.40;68.60
10233;DHT22;5161;48.174;11.756;2023-03-31T16:39:55;13.40;68.10
10233;DHT22;5161;48.174;11.756;2023-03-31T16:42:21;13.30;67.80
10233;DHT22;5161;48.174;11.756;2023-03-31T16:44:46;13.30;68.40
10233;DHT22;5161;48.174;11.756;2023-03-31T16:47:12;13.30;67.70
10233;DHT22;5161;48.174;11.756;2023-03-31T16:49:38;13.20;67.90
10233;DHT22;5161;48.174;11.756;2023-03-31T16:52:04;13.00;68.50
10233;DHT22;5161;48.174;11.756;2023-03-31T16:54:31;13.00;68.40
10233;DHT22;5161;48.174;11.756;2023-03-31T16:56:57;13.00;67.30
10233;DHT22;5161;48.174;11.756;2023-03-31T16:59:23;12.90;67.70
10233;DHT22;5161;48.174;11.756;2023-03-31T17:01:49;12.90;68.50
10233;DHT22;5161;48.174;11.756;2023-03-31T17:04:16;12.90;68.00
10233;DHT22;5161;48.174;11.756;2023-03-31T17:06:42;12.80;67.30
10233;DHT22;5161;48.174;11.756;2023-03-31T17:09:08;12.70;67.00
10233;DHT22;5161;48.174;11.756;2023-03-31T17:11:35;12.70;67.90
10233;DHT22;5161;48.174;11.756;2023-03-31T17:14:00;12.50;68.70
10233;DHT22;5161;48.174;11.756;2023-03-31T17:16:26;12.10;70.60
10233;DHT22;5161;48.174;11.756;2023-03-31T17:18:52;11.90;72.00
10233;DHT22;5161;48.174;11.756;2023-03-31T17:21:18;11.70;72.90
10233;DHT22;5161;48.174;11.756;2023-03-31T17:23:45;11.60;73.30
10233;DHT22;5161;48.174;11.756;2023-03-31T17:26:11;11.60;73.60
10233;DHT22;5161;48.174;11.756;2023-03-31T17:28:38;11.60;72.90
10233;DHT22;5161;48.174;11.756;2023-03-31T17:31:17;11.50;73.00
10233;DHT22;5161;48.174;11.756;2023-03-31T17:33:43;11.60;73.50
10233;DHT22;5161;48.174;11.756;2023-03-31T17:36:09;11.50;73.20
10233;DHT22;5161;48.174;11.756;2023-03-31T17:38:35;11.50;73.20
10233;DHT22;5161;48.174;11.756;2023-03-31T17:41:03;11.40;73.40
10233;DHT22;5161;48.174;11.756;2023-03-31T17:43:29;11.20;74.30
10233;DHT22;5161;48.174;11.756;2023-03-31T17:46:06;11.20;74.60
10233;DHT22;5161;48.174;11.756;2023-03-31T17:48:33;11.20;75.60
10233;DHT22;5161;48.174;11.756;2023-03-31T17:51:18;11.10;75.10
10233;DHT22;5161;48.174;11.756;2023-03-31T17:53:45;10.90;75.10
10233;DHT22;5161;48.174;11.756;2023-03-31T17:56:12;10.90;75.10
10233;DHT22;5161;48.174;11.756;2023-03-31T17:58:37;10.90;74.90
10233;DHT22;5161;48.174;11.756;2023-03-31T18:01:05;10.90;74.90
10233;DHT22;5161;48.174;11.756;2023-03-31T18:03:33;10.70;75.50
10233;DHT22;5161;48.174;11.756;2023-03-31T18:06:08;10.70;75.30
10233;DHT22;5161;48.174;11.756;2023-03-31T18:08:36;10.80;75.60
10233;DHT22;5161;48.174;11.756;2023-03-31T18:11:02;10.80;75.00
10233;DHT22;5161;48.174;11.756;2023-03-31T18:13:30;10.80;74.80
10233;DHT22;5161;48.174;11.756;2023-03-31T18:15:56;10.80;74.10